Time;durP1;ratioP1;P1;durP2;ratioP2;P2;SDS_P1;SDS_P2;PMS_P1;PMS_P2;Temp;Humidity;BMP_temperature;BMP_pressure;BME280_temperature;BME280_humidity;BME280_pressure;Samples;Min_cycle;Max_cycle;Signal;HPM_P1;HPM_P2
2024/01/13 00:01:09;;;;;;;9.80;5.93;;;;;;;2.53;66.15;102259.13;4953124;28;104829;-55
2024/01/13 00:03:34;;;;;;;6.00;5.40;;;;;;;2.53;65.94;102254.44;4956092;28;97194;-55
2024/01/13 00:06:00;;;;;;;5.20;4.70;;;;;;;2.54;65.87;102255.22;4953709;28;97296;-55
2024/01/13 00:08:25;;;;;;;7.07;5.20;;;;;;;2.52;66.16;102243.94;4951921;28;97118;-55
2024/01/13 00:10:50;;;;;;;6.03;4.97;;;;;;;2.54;65.91;102247.81;4952057;28;105042;-55
2024/01/13 00:13:15;;;;;;;5.50;4.90;;;;;;;2.52;66.00;102242.00;4958143;28;99079;-55
2024/01/13 00:15:41;;;;;;;5.50;5.00;;;;;;;2.54;66.23;102231.41;4952893;28;100655;-56
2024/01/13 00:18:06;;;;;;;5.90;5.00;;;;;;;2.54;66.22;102231.41;4952808;28;110522;-56
2024/01/13 00:20:32;;;;;;;4.63;4.23;;;;;;;2.54;66.08;102230.63;4952333;28;97215;-56
2024/01/13 00:22:57;;;;;;;6.10;5.43;;;;;;;2.53;65.98;102224.41;4949914;28;97290;-55
2024/01/13 00:25:22;;;;;;;6.40;5.77;;;;;;;2.52;66.01;102228.34;4952858;28;96862;-56
2024/01/13 00:27:48;;;;;;;5.50;5.00;;;;;;;2.52;66.17;102219.38;4950197;28;97486;-54
2024/01/13 00:30:14;;;;;;;7.63;5.20;;;;;;;2.52;66.16;102220.16;4951280;28;98352;-56
2024/01/13 00:32:39;;;;;;;8.03;6.37;;;;;;;2.52;65.83;102216.63;4949784;28;97278;-56
2024/01/13 00:35:05;;;;;;;5.80;5.20;;;;;;;2.52;66.20;102213.91;4954525;28;97158;-55
2024/01/13 00:37:30;;;;;;;6.10;5.20;;;;;;;2.51;66.09;102213.13;4954540;28;97105;-55
2024/01/13 00:39:55;;;;;;;5.10;4.60;;;;;;;2.50;66.12;102214.34;4952584;28;98352;-55
2024/01/13 00:42:21;;;;;;;5.07;4.57;;;;;;;2.50;66.05;102206.13;4951521;28;99152;-55
2024/01/13 00:44:46;;;;;;;6.20;5.33;;;;;;;2.50;65.91;102211.59;4952105;28;96987;-55
2024/01/13 00:47:11;;;;;;;5.73;5.17;;;;;;;2.50;66.17;102208.88;4950764;28;108557;-55
2024/01/13 00:49:37;;;;;;;6.50;5.00;;;;;;;2.49;66.47;102201.84;4953333;28;106135;-55
2024/01/13 00:52:02;;;;;;;6.03;4.90;;;;;;;2.50;66.20;102203.41;4955487;28;102544;-55
2024/01/13 00:54:27;;;;;;;5.43;4.67;;;;;;;2.49;66.46;102207.31;4955904;28;97046;-55
2024/01/13 00:56:53;;;;;;;5.20;4.50;;;;;;;2.49;66.32;102212.78;4953029;28;107082;-55
2024/01/13 00:59:19;;;;;;;5.80;4.27;;;;;;;2.46;65.92;102202.69;4955362;28;97487;-55
2024/01/13 01:01:44;;;;;;;5.40;4.90;;;;;;;2.43;66.46;102198.09;4954734;28;97307;-55
2024/01/13 01:04:10;;;;;;;6.60;5.20;;;;;;;2.42;66.18;102207.47;4954814;28;96845;-55
2024/01/13 01:06:35;;;;;;;6.30;4.90;;;;;;;2.44;66.49;102202.34;4955378;28;97968;-55
2024/01/13 01:09:00;;;;;;;6.80;5.50;;;;;;;2.47;66.28;102200.72;4953800;28;96828;-55
2024/01/13 01:11:26;;;;;;;6.80;5.07;;;;;;;2.48;66.36;102197.56;4955381;28;97368;-55
2024/01/13 01:13:51;;;;;;;6.07;5.47;;;;;;;2.50;66.37;102206.13;4954248;28;96726;-55
2024/01/13 01:16:17;;;;;;;6.70;5.50;;;;;;;2.49;66.13;102203.81;4952101;28;98584;-55
2024/01/13 01:18:42;;;;;;;8.00;5.37;;;;;;;2.49;66.54;102201.84;4954651;28;97322;-55
2024/01/13 01:21:08;;;;;;;6.43;4.87;;;;;;;2.48;66.17;102205.00;4950827;28;96716;-55
2024/01/13 01:23:33;;;;;;;5.00;4.50;;;;;;;2.47;66.58;102203.47;4952917;28;97532;-55
2024/01/13 01:25:58;;;;;;;7.97;4.87;;;;;;;2.48;66.25;102203.03;4952065;28;105376;-55
2024/01/13 01:28:24;;;;;;;4.87;4.33;;;;;;;2.47;66.46;102196.03;4951433;28;105873;-55
2024/01/13 01:30:49;;;;;;;7.13;4.73;;;;;;;2.48;66.36;102186.63;4952731;28;97125;-55
2024/01/13 01:33:14;;;;;;;6.37;4.47;;;;;;;2.48;66.21;102186.63;4951388;28;97094;-55
2024/01/13 01:35:40;;;;;;;4.53;4.10;;;;;;;2.50;66.13;102180.78;4953078;28;101890;-55
2024/01/13 01:38:05;;;;;;;5.33;4.50;;;;;;;2.50;66.11;102165.16;4953638;28;97121;-55
2024/01/13 01:40:33;;;;;;;10.03;4.97;;;;;;;2.50;65.89;102159.69;4952132;28;103744;-55
2024/01/13 01:42:58;;;;;;;5.03;4.53;;;;;;;2.51;66.25;102157.72;4950867;28;97240;-55
2024/01/13 01:45:23;;;;;;;5.50;4.30;;;;;;;2.48;66.14;102153.84;4951920;28;108683;-55
2024/01/13 01:47:52;;;;;;;5.37;4.70;;;;;;;2.48;66.33;102153.84;4952936;28;97748;-55
2024/01/13 01:50:17;;;;;;;5.30;4.47;;;;;;;2.49;66.38;102152.69;4953993;28;97181;-55
2024/01/13 01:52:43;;;;;;;5.70;3.70;;;;;;;2.50;66.27;102151.50;4950730;28;96826;-55
2024/01/13 01:55:09;;;;;;;5.63;4.63;;;;;;;2.49;66.38;102140.97;4955358;28;97474;-55
2024/01/13 01:57:38;;;;;;;4.67;4.23;;;;;;;2.48;66.11;102148.41;4956908;28;97110;-55
2024/01/13 02:00:08;;;;;;;6.40;4.30;;;;;;;2.48;66.08;102148.41;4950486;28;97322;-55
2024/01/13 02:02:35;;;;;;;6.10;4.60;;;;;;;2.48;66.28;102147.66;4953291;28;97189;-55
2024/01/13 02:05:02;;;;;;;5.17;4.30;;;;;;;2.49;66.45;102144.50;4953221;28;97692;-55
2024/01/13 02:07:27;;;;;;;7.43;4.60;;;;;;;2.48;66.19;102140.19;4951788;28;99224;-55
2024/01/13 02:09:53;;;;;;;8.47;4.33;;;;;;;2.48;66.34;102134.75;4954259;28;97128;-55
2024/01/13 02:12:19;;;;;;;7.07;5.10;;;;;;;2.47;66.05;102135.94;4951284;28;96666;-55
2024/01/13 02:14:44;;;;;;;7.30;5.40;;;;;;;2.47;66.16;102126.97;4952611;28;98726;-55
2024/01/13 02:17:10;;;;;;;8.10;5.80;;;;;;;2.47;66.09;102122.28;4951646;28;97463;-55
2024/01/13 02:19:35;;;;;;;6.40;4.33;;;;;;;2.47;66.30;102114.09;4954891;28;97026;-55
2024/01/13 02:22:00;;;;;;;6.87;5.70;;;;;;;2.48;66.58;102115.63;4952299;28;97186;-55
2024/01/13 02:24:26;;;;;;;9.70;5.00;;;;;;;2.50;66.43;102115.22;4954244;28;97193;-55
2024/01/13 02:26:51;;;;;;;6.50;5.60;;;;;;;2.48;66.43;102115.63;4952716;28;110824;-55
2024/01/13 02:29:16;;;;;;;7.33;6.50;;;;;;;2.48;66.43;102110.16;4954942;28;97114;-55
2024/01/13 02:31:41;;;;;;;8.20;6.07;;;;;;;2.48;66.32;102099.22;4952055;28;96890;-55
2024/01/13 02:34:07;;;;;;;8.23;6.00;;;;;;;2.47;66.26;102094.97;4953513;28;108340;-55
2024/01/13 02:36:32;;;;;;;7.57;5.90;;;;;;;2.46;66.32;102087.22;4954069;28;97225;-55
2024/01/13 02:38:57;;;;;;;8.73;6.83;;;;;;;2.45;66.25;102091.13;4954667;28;106124;-55
2024/01/13 02:41:23;;;;;;;15.27;6.90;;;;;;;2.45;66.27;102091.13;4955591;28;97133;-55
2024/01/13 02:43:49;;;;;;;8.60;6.60;;;;;;;2.45;66.52;102091.91;4951237;28;97626;-55
2024/01/13 02:46:14;;;;;;;7.93;7.10;;;;;;;2.45;66.34;102097.38;4953390;28;97500;-55
2024/01/13 02:48:43;;;;;;;10.30;7.07;;;;;;;2.44;66.06;102082.16;4955297;28;97293;-55
2024/01/13 02:51:13;;;;;;;8.40;6.70;;;;;;;2.43;66.33;102069.72;4955863;28;96905;-55
2024/01/13 02:53:39;;;;;;;9.87;7.50;;;;;;;2.43;66.47;102069.72;4953388;28;97535;-56
2024/01/13 02:56:04;;;;;;;9.27;6.50;;;;;;;2.42;66.46;102068.16;4954301;28;97176;-55
2024/01/13 02:58:30;;;;;;;10.83;7.97;;;;;;;2.42;66.19;102065.44;4954692;28;97338;-55
2024/01/13 03:00:55;;;;;;;9.47;7.07;;;;;;;2.43;66.10;102063.47;4952991;28;96692;-55
2024/01/13 03:03:20;;;;;;;14.23;7.50;;;;;;;2.42;66.11;102056.47;4956628;28;102462;-55
2024/01/13 03:05:46;;;;;;;8.57;6.90;;;;;;;2.41;66.04;102052.97;4955276;28;97205;-54
2024/01/13 03:08:11;;;;;;;10.33;7.30;;;;;;;2.41;66.48;102044.78;4953863;28;97057;-55
2024/01/13 03:10:36;;;;;;;7.83;6.20;;;;;;;2.41;66.32;102036.59;4952908;28;97008;-55
2024/01/13 03:13:02;;;;;;;8.27;6.63;;;;;;;2.40;66.43;102040.50;4956596;28;97256;-55
2024/01/13 03:15:27;;;;;;;12.20;7.20;;;;;;;2.37;66.43;102044.09;4955163;28;97117;-55
2024/01/13 03:17:52;;;;;;;8.20;6.37;;;;;;;2.35;66.39;102035.53;4951036;28;97360;-54
2024/01/13 03:20:18;;;;;;;7.47;6.43;;;;;;;2.35;66.40;102027.34;4953435;28;102870;-55
2024/01/13 03:22:45;;;;;;;7.77;6.40;;;;;;;2.32;66.43;102024.69;4953620;28;99499;-55
2024/01/13 03:25:11;;;;;;;8.30;6.57;;;;;;;2.31;66.66;102029.38;4954730;28;97260;-56
2024/01/13 03:27:36;;;;;;;9.40;6.83;;;;;;;2.34;66.29;102023.09;4954860;28;96711;-55
2024/01/13 03:30:02;;;;;;;6.73;5.70;;;;;;;2.31;66.27;102021.19;4954879;28;97087;-55
2024/01/13 03:32:27;;;;;;;8.23;6.30;;;;;;;2.30;66.29;102018.88;4952745;28;96903;-55
2024/01/13 03:34:52;;;;;;;7.40;5.80;;;;;;;2.28;66.67;102013.84;4955666;28;97092;-56
2024/01/13 03:37:18;;;;;;;6.27;5.27;;;;;;;2.28;66.64;102007.63;4954065;28;100710;-56
2024/01/13 03:39:43;;;;;;;5.47;4.93;;;;;;;2.27;66.51;102008.81;4952225;28;97085;-56
2024/01/13 03:42:09;;;;;;;6.40;5.73;;;;;;;2.27;66.39;102001.38;4951711;28;96662;-56
2024/01/13 03:44:34;;;;;;;6.60;5.60;;;;;;;2.26;66.26;102002.59;4953074;28;97615;-55
2024/01/13 03:46:59;;;;;;;7.90;5.60;;;;;;;2.22;66.50;102001.88;4953048;28;102014;-56
2024/01/13 03:49:25;;;;;;;5.10;4.60;;;;;;;2.22;66.52;102015.53;4954593;28;97560;-56
2024/01/13 03:51:50;;;;;;;5.10;4.60;;;;;;;2.19;66.16;101993.78;4952542;28;97167;-56
2024/01/13 03:54:16;;;;;;;7.20;4.53;;;;;;;2.20;66.70;101995.34;4954504;28;97442;-56
2024/01/13 03:56:41;;;;;;;5.23;4.70;;;;;;;2.19;66.49;101989.09;4951375;28;97064;-55
2024/01/13 03:59:06;;;;;;;5.03;4.53;;;;;;;2.19;66.38;101988.31;4952883;28;97289;-55
2024/01/13 04:01:32;;;;;;;5.47;4.73;;;;;;;2.18;66.41;101987.56;4953000;28;97041;-56
2024/01/13 04:03:57;;;;;;;5.53;4.90;;;;;;;2.19;66.37;101983.63;4949865;28;97029;-55
2024/01/13 04:06:23;;;;;;;4.83;4.40;;;;;;;2.21;66.46;101985.94;4949832;28;97055;-54
2024/01/13 04:08:48;;;;;;;6.50;5.00;;;;;;;2.22;66.26;101976.56;4950547;28;97008;-56
2024/01/13 04:11:13;;;;;;;5.27;4.50;;;;;;;2.24;66.27;101974.16;4951094;28;98624;-55
2024/01/13 04:13:39;;;;;;;4.10;3.70;;;;;;;2.26;66.49;101975.28;4954456;28;97610;-56
2024/01/13 04:16:04;;;;;;;4.70;4.20;;;;;;;2.24;66.51;101969.47;4953131;28;97602;-56
2024/01/13 04:18:30;;;;;;;4.93;3.67;;;;;;;2.22;66.18;101969.13;4950554;28;97107;-56
2024/01/13 04:20:55;;;;;;;5.07;4.57;;;;;;;2.20;66.29;101963.31;4952862;28;96891;-56
2024/01/13 04:23:20;;;;;;;5.80;4.17;;;;;;;2.20;66.50;101963.31;4952880;28;97656;-55
2024/01/13 04:25:45;;;;;;;5.60;4.40;;;;;;;2.20;66.33;101952.41;4950800;28;97909;-55
2024/01/13 04:28:11;;;;;;;6.10;4.20;;;;;;;2.20;66.55;101952.41;4950606;28;97273;-56
2024/01/13 04:30:36;;;;;;;3.57;3.27;;;;;;;2.20;66.48;101955.13;4954696;28;97997;-55
2024/01/13 04:33:02;;;;;;;4.53;3.30;;;;;;;2.21;66.42;101967.59;4949448;28;107091;-55
2024/01/13 04:35:28;;;;;;;3.83;3.43;;;;;;;2.22;66.47;101955.47;4951743;28;97139;-55
2024/01/13 04:37:54;;;;;;;7.77;3.10;;;;;;;2.23;66.62;101959.75;4949376;28;96730;-56
2024/01/13 04:40:19;;;;;;;3.37;3.13;;;;;;;2.24;66.51;101961.28;4946954;28;96775;-55
2024/01/13 04:42:45;;;;;;;4.27;3.10;;;;;;;2.23;66.33;101954.28;4951676;28;98091;-56
2024/01/13 04:45:10;;;;;;;3.53;3.23;;;;;;;2.20;66.49;101957.84;4948310;28;97004;-55
2024/01/13 04:47:35;;;;;;;3.63;3.20;;;;;;;2.22;66.69;101965.63;4951614;28;102603;-55
2024/01/13 04:50:01;;;;;;;4.03;3.10;;;;;;;2.24;66.57;101958.56;4952330;28;97304;-56
2024/01/13 04:52:26;;;;;;;3.10;2.80;;;;;;;2.22;66.27;101960.94;4950668;28;97087;-56
2024/01/13 04:54:51;;;;;;;3.13;2.80;;;;;;;2.22;66.55;101968.38;4952392;28;98584;-55
2024/01/13 04:57:17;;;;;;;4.27;2.90;;;;;;;2.22;66.51;101960.94;4950901;28;98200;-55
2024/01/13 04:59:42;;;;;;;2.83;2.63;;;;;;;2.22;66.71;101952.72;4951383;28;104641;-55
2024/01/13 05:02:07;;;;;;;5.70;2.90;;;;;;;2.20;66.47;101952.41;4949330;28;102545;-55
2024/01/13 05:04:33;;;;;;;4.07;3.20;;;;;;;2.19;66.57;101952.84;4952590;28;100855;-56
2024/01/13 05:06:58;;;;;;;3.00;2.80;;;;;;;2.18;66.86;101937.66;4952111;28;101329;-56
2024/01/13 05:09:23;;;;;;;3.50;2.60;;;;;;;2.16;66.86;101935.34;4949474;28;97506;-55
2024/01/13 05:11:48;;;;;;;3.27;2.97;;;;;;;2.13;66.83;101929.97;4949964;28;101577;-56
2024/01/13 05:14:15;;;;;;;5.43;3.10;;;;;;;2.13;66.64;101932.69;4950315;28;97437;-55
2024/01/13 05:16:40;;;;;;;2.67;2.50;;;;;;;2.16;66.93;101931.84;4948785;28;97019;-56
2024/01/13 05:19:06;;;;;;;2.90;2.70;;;;;;;2.15;67.09;101931.09;4950504;28;97057;-55
2024/01/13 05:21:32;;;;;;;2.50;2.30;;;;;;;2.14;66.62;101929.53;4948342;28;96886;-56
2024/01/13 05:23:57;;;;;;;3.07;2.73;;;;;;;2.16;66.90;101929.09;4951385;28;96685;-56
2024/01/13 05:26:22;;;;;;;3.33;2.80;;;;;;;2.18;66.46;101929.47;4949889;28;96865;-55
2024/01/13 05:28:48;;;;;;;4.07;2.53;;;;;;;2.16;66.46;101929.88;4949585;28;106078;-57
2024/01/13 05:31:14;;;;;;;4.70;3.23;;;;;;;2.15;66.69;101928.34;4947117;28;96818;-55
2024/01/13 05:33:40;;;;;;;3.73;2.60;;;;;;;2.15;66.66;101925.63;4951811;28;97019;-56
2024/01/13 05:36:05;;;;;;;2.43;2.17;;;;;;;2.15;67.12;101922.13;4949809;28;97334;-56
2024/01/13 05:38:30;;;;;;;2.70;2.50;;;;;;;2.15;66.82;101922.13;4952709;28;97727;-56
2024/01/13 05:40:56;;;;;;;2.70;2.50;;;;;;;2.15;66.81;101927.59;4951605;28;100179;-56
2024/01/13 05:43:22;;;;;;;3.97;2.50;;;;;;;2.15;67.13;101928.34;4950479;28;96733;-57
2024/01/13 05:45:47;;;;;;;2.27;2.17;;;;;;;2.14;67.02;101921.34;4953689;28;97138;-55
2024/01/13 05:48:12;;;;;;;2.60;2.40;;;;;;;2.15;66.81;101924.84;4948108;28;97988;-55
2024/01/13 05:50:38;;;;;;;2.30;2.10;;;;;;;2.17;66.80;101914.28;4949817;28;97130;-56
2024/01/13 05:53:03;;;;;;;2.63;2.20;;;;;;;2.18;66.94;101913.09;4950402;28;96956;-56
2024/01/13 05:55:28;;;;;;;2.13;2.03;;;;;;;2.19;66.74;101903.69;4950516;28;97069;-56
2024/01/13 05:57:54;;;;;;;2.20;2.00;;;;;;;2.17;66.97;101898.66;4950713;28;97260;-57
2024/01/13 06:00:19;;;;;;;2.97;2.67;;;;;;;2.16;67.02;101899.84;4951413;28;106490;-56
2024/01/13 06:02:46;;;;;;;2.40;2.20;;;;;;;2.15;67.13;101897.56;4951145;28;97091;-55
2024/01/13 06:05:11;;;;;;;3.43;2.30;;;;;;;2.16;67.09;101899.06;4950252;28;97105;-56
2024/01/13 06:07:37;;;;;;;2.20;2.00;;;;;;;2.18;66.85;101899.44;4953528;28;97905;-55
2024/01/13 06:10:03;;;;;;;2.37;2.17;;;;;;;2.19;66.75;101887.31;4954227;28;97385;-55
2024/01/13 06:12:28;;;;;;;2.60;2.27;;;;;;;2.16;67.11;101894.38;4952135;28;97394;-56
2024/01/13 06:14:55;;;;;;;2.40;2.00;;;;;;;2.16;66.83;101888.94;4954108;28;100609;-55
2024/01/13 06:17:20;;;;;;;2.73;2.10;;;;;;;2.17;66.75;101887.75;4953121;28;98620;-56
2024/01/13 06:19:46;;;;;;;2.13;1.70;;;;;;;2.16;66.90;101883.47;4952764;28;96940;-55
2024/01/13 06:22:12;;;;;;;2.03;1.93;;;;;;;2.17;66.67;101863.19;4953139;28;97177;-56
2024/01/13 06:24:37;;;;;;;2.50;2.20;;;;;;;2.16;66.70;101858.13;4954814;28;97229;-56
2024/01/13 06:27:03;;;;;;;2.30;2.10;;;;;;;2.17;66.76;101851.47;4952039;28;97115;-56
2024/01/13 06:29:28;;;;;;;2.80;2.43;;;;;;;2.14;66.67;101855.81;4953189;28;97026;-55
2024/01/13 06:31:53;;;;;;;2.20;1.97;;;;;;;2.14;67.10;101844.91;4958024;28;96986;-56
2024/01/13 06:34:19;;;;;;;2.80;2.30;;;;;;;2.15;66.71;101843.72;4952402;28;101399;-55
2024/01/13 06:36:44;;;;;;;2.13;1.97;;;;;;;2.16;66.96;101841.75;4956077;28;100942;-55
2024/01/13 06:39:09;;;;;;;2.43;2.23;;;;;;;2.17;66.94;101838.59;4956765;28;97149;-55
2024/01/13 06:41:35;;;;;;;2.10;2.00;;;;;;;2.17;66.83;101819.50;4956366;28;97143;-55
2024/01/13 06:44:00;;;;;;;2.10;1.90;;;;;;;2.18;66.82;101815.56;4955644;28;99937;-55
2024/01/13 06:46:25;;;;;;;2.13;2.03;;;;;;;2.18;66.86;101812.06;4953270;28;96981;-56
2024/01/13 06:48:51;;;;;;;2.43;2.23;;;;;;;2.18;66.62;101798.44;4953276;28;97124;-56
2024/01/13 06:51:16;;;;;;;2.70;2.03;;;;;;;2.17;66.84;101803.13;4951638;28;97346;-56
2024/01/13 06:53:41;;;;;;;1.70;1.60;;;;;;;2.17;67.10;101796.88;4954053;28;96959;-55
2024/01/13 06:56:08;;;;;;;1.70;1.60;;;;;;;2.17;66.73;101783.22;4954094;28;97436;-56
2024/01/13 06:58:33;;;;;;;2.10;1.97;;;;;;;2.16;66.88;101787.91;4950988;28;97870;-55
2024/01/13 07:00:59;;;;;;;2.30;1.57;;;;;;;2.17;66.78;101783.22;4955148;28;97429;-56
2024/01/13 07:03:24;;;;;;;3.33;1.93;;;;;;;2.17;66.82;101783.22;4957615;28;97114;-56
2024/01/13 07:05:49;;;;;;;2.40;2.20;;;;;;;2.14;67.20;101778.63;4955684;28;97686;-55
2024/01/13 07:08:15;;;;;;;1.80;1.70;;;;;;;2.13;66.94;101766.19;4952255;28;97539;-56
2024/01/13 07:10:40;;;;;;;1.87;1.77;;;;;;;2.14;67.13;101784.06;4955469;28;96746;-56
2024/01/13 07:13:06;;;;;;;1.60;1.50;;;;;;;2.15;67.09;101783.66;4955224;28;96993;-55
2024/01/13 07:15:31;;;;;;;2.07;1.97;;;;;;;2.16;66.82;101777.00;4952332;28;97000;-57
2024/01/13 07:17:57;;;;;;;1.80;1.70;;;;;;;2.14;66.90;101773.94;4954093;28;108813;-56
2024/01/13 07:20:23;;;;;;;1.70;1.60;;;;;;;2.15;67.00;101775.47;4952501;28;96713;-56
2024/01/13 07:22:49;;;;;;;2.10;1.90;;;;;;;2.15;67.15;101786.41;4956151;28;96592;-55
2024/01/13 07:25:14;;;;;;;1.77;1.67;;;;;;;2.17;66.77;101780.50;4953779;28;98575;-55
2024/01/13 07:27:39;;;;;;;2.90;2.03;;;;;;;2.17;66.90;101770.34;4956698;28;96564;-56
2024/01/13 07:30:06;;;;;;;2.40;2.20;;;;;;;2.17;66.98;101767.63;4954829;28;96684;-56
2024/01/13 07:32:31;;;;;;;2.40;1.60;;;;;;;2.16;66.81;101766.06;4951190;28;97316;-56
2024/01/13 07:34:56;;;;;;;2.40;2.20;;;;;;;2.16;67.21;101763.34;4954422;28;97267;-55
2024/01/13 07:37:21;;;;;;;2.30;2.10;;;;;;;2.15;66.96;101763.78;4952605;28;103427;-55
2024/01/13 07:39:47;;;;;;;2.20;2.10;;;;;;;2.14;66.91;101765.75;4954880;28;97107;-56
2024/01/13 07:42:12;;;;;;;1.93;1.80;;;;;;;2.14;67.04;101765.75;4954990;28;97087;-55
2024/01/13 07:44:40;;;;;;;2.07;1.87;;;;;;;2.16;66.98;101766.06;4954786;28;97514;-55
2024/01/13 07:47:06;;;;;;;2.00;1.90;;;;;;;2.16;67.27;101752.44;4953008;28;98429;-58
2024/01/13 07:49:31;;;;;;;1.77;1.67;;;;;;;2.14;67.00;101763.00;4952672;28;97073;-55
2024/01/13 07:51:57;;;;;;;2.33;1.80;;;;;;;2.12;67.04;101759.19;4952671;28;96909;-55
2024/01/13 07:54:23;;;;;;;2.60;2.40;;;;;;;2.11;67.20;101752.97;4953965;28;97701;-56
2024/01/13 07:56:49;;;;;;;2.33;1.80;;;;;;;2.12;67.22;101754.50;4953656;28;97061;-56
2024/01/13 07:59:16;;;;;;;2.07;1.87;;;;;;;2.14;67.38;101751.31;4952119;28;96829;-56
2024/01/13 08:01:41;;;;;;;2.10;1.90;;;;;;;2.13;67.13;101749.81;4954726;28;96919;-55
2024/01/13 08:04:07;;;;;;;2.40;2.20;;;;;;;2.15;67.17;101750.13;4952599;28;98556;-56
2024/01/13 08:06:32;;;;;;;2.30;2.07;;;;;;;2.15;67.07;101737.25;4954364;28;97011;-56
2024/01/13 08:08:58;;;;;;;2.20;2.03;;;;;;;2.16;66.89;101735.28;4953674;28;97080;-56
2024/01/13 08:11:23;;;;;;;2.03;1.83;;;;;;;2.15;67.10;101739.22;4951906;28;96807;-56
2024/01/13 08:13:48;;;;;;;1.90;1.80;;;;;;;2.15;67.06;101736.50;4955419;28;97611;-56
2024/01/13 08:16:14;;;;;;;1.63;1.53;;;;;;;2.18;67.20;101747.31;4954233;28;97461;-56
2024/01/13 08:18:39;;;;;;;1.97;1.87;;;;;;;2.20;67.20;101735.97;4954651;28;96623;-56
2024/01/13 08:21:05;;;;;;;1.90;1.80;;;;;;;2.18;66.84;101730.91;4954792;28;96669;-55
2024/01/13 08:23:30;;;;;;;2.03;1.93;;;;;;;2.18;67.04;101741.84;4954185;28;97742;-55
2024/01/13 08:25:56;;;;;;;2.10;2.00;;;;;;;2.17;67.15;101728.63;4951336;28;96973;-56
2024/01/13 08:28:21;;;;;;;2.63;2.43;;;;;;;2.21;66.95;101742.94;4952748;28;96993;-56
2024/01/13 08:30:46;;;;;;;2.47;2.27;;;;;;;2.21;66.97;101724.59;4953869;28;97148;-56
2024/01/13 08:33:12;;;;;;;2.00;1.90;;;;;;;2.20;67.28;101717.59;4952279;28;97372;-56
2024/01/13 08:35:37;;;;;;;2.20;2.00;;;;;;;2.22;67.37;101700.81;4953614;28;97115;-55
2024/01/13 08:38:02;;;;;;;2.00;1.90;;;;;;;2.26;67.07;101701.47;4952725;28;102142;-55
2024/01/13 08:40:28;;;;;;;2.70;2.50;;;;;;;2.28;67.24;101693.59;4951834;28;97223;-56
2024/01/13 08:42:53;;;;;;;2.87;2.03;;;;;;;2.32;67.31;101686.84;4954379;28;98634;-55
2024/01/13 08:45:23;;;;;;;2.70;2.50;;;;;;;2.36;67.34;101701.19;4948601;28;97850;-56
2024/01/13 08:47:48;;;;;;;2.67;2.47;;;;;;;2.40;67.29;101704.59;4950179;28;97099;-55
2024/01/13 08:50:14;;;;;;;3.53;2.50;;;;;;;2.45;67.11;101706.78;4952943;28;97311;-56
2024/01/13 08:52:40;;;;;;;2.70;2.50;;;;;;;2.47;66.95;101692.69;4952504;28;96956;-55
2024/01/13 08:55:06;;;;;;;2.30;2.10;;;;;;;2.48;67.01;101711.34;4952838;28;97254;-56
2024/01/13 08:57:31;;;;;;;2.20;2.10;;;;;;;2.47;67.00;101690.72;4948402;28;97165;-55
2024/01/13 08:59:57;;;;;;;2.47;2.27;;;;;;;2.44;66.90;101669.72;4953321;28;97143;-56
2024/01/13 09:02:22;;;;;;;2.87;2.67;;;;;;;2.42;67.33;101663.94;4951780;28;97572;-57
2024/01/13 09:04:47;;;;;;;3.03;2.33;;;;;;;2.42;66.75;101669.41;4952174;28;97788;-55
2024/01/13 09:07:13;;;;;;;1.97;1.87;;;;;;;2.43;67.13;101675.63;4952445;28;96945;-57
2024/01/13 09:09:38;;;;;;;2.20;1.90;;;;;;;2.42;67.15;101669.41;4952034;28;97263;-56
2024/01/13 09:12:04;;;;;;;2.67;2.40;;;;;;;2.44;67.18;101656.09;4952230;28;96998;-56
2024/01/13 09:14:29;;;;;;;5.70;3.10;;;;;;;2.42;67.23;101655.75;4952982;28;98694;-56
2024/01/13 09:16:54;;;;;;;2.87;2.57;;;;;;;2.39;67.19;101653.13;4950588;28;97607;-55
2024/01/13 09:19:20;;;;;;;2.50;2.30;;;;;;;2.34;66.91;101640.00;4955234;28;97239;-56
2024/01/13 09:21:45;;;;;;;2.10;1.83;;;;;;;2.31;67.15;101630.69;4951511;28;97779;-57
2024/01/13 09:24:10;;;;;;;2.13;2.03;;;;;;;2.31;67.56;101622.50;4953432;28;105823;-56
2024/01/13 09:26:43;;;;;;;2.00;1.90;;;;;;;2.28;67.53;101623.38;4952614;28;97178;-55
2024/01/13 09:29:08;;;;;;;2.37;2.00;;;;;;;2.29;67.16;101629.59;4949701;28;97351;-56
2024/01/13 09:31:33;;;;;;;2.90;2.43;;;;;;;2.31;67.43;101627.22;4954940;28;97450;-56
2024/01/13 09:33:59;;;;;;;2.50;2.20;;;;;;;2.32;67.53;101618.59;4953120;28;97240;-56
2024/01/13 09:36:24;;;;;;;2.53;2.33;;;;;;;2.36;67.43;101621.22;4950014;28;108976;-56
2024/01/13 09:38:49;;;;;;;1.97;1.87;;;;;;;2.38;67.24;101624.28;4951240;28;96933;-56
2024/01/13 09:41:15;;;;;;;2.20;2.00;;;;;;;2.41;67.60;101626.16;4948895;28;111946;-56
2024/01/13 09:44:03;;;;;;;2.60;2.23;;;;;;;2.44;67.41;101628.03;4955343;28;97136;-56
2024/01/13 09:46:29;;;;;;;2.43;1.53;;;;;;;2.43;67.22;101627.25;4954027;28;97075;-56
2024/01/13 09:48:55;;;;;;;2.30;2.10;;;;;;;2.48;67.35;101632.16;4955785;28;96942;-56
2024/01/13 09:51:22;;;;;;;2.87;2.27;;;;;;;2.50;67.20;101635.25;4952847;28;97548;-56
2024/01/13 09:53:59;;;;;;;2.83;2.50;;;;;;;2.51;67.06;101634.03;4952679;28;97193;-55
2024/01/13 09:56:32;;;;;;;2.87;2.67;;;;;;;2.53;67.31;101637.09;4952622;28;97525;-55
2024/01/13 09:58:59;;;;;;;3.83;3.53;;;;;;;2.55;67.12;101640.13;4954658;28;97099;-56
2024/01/13 10:01:26;;;;;;;3.40;3.10;;;;;;;2.61;67.18;101651.31;4955334;28;96978;-55
2024/01/13 10:03:52;;;;;;;3.30;3.00;;;;;;;2.62;67.24;101639.16;4955449;28;97134;-56
2024/01/13 10:06:18;;;;;;;3.27;3.07;;;;;;;2.65;67.07;101638.28;4952229;28;97682;-55
2024/01/13 10:08:44;;;;;;;2.67;2.47;;;;;;;2.68;67.31;101631.19;4953579;28;96836;-57
2024/01/13 10:11:09;;;;;;;2.50;2.30;;;;;;;2.69;67.57;101630.75;4957854;28;97454;-56
2024/01/13 10:13:36;;;;;;;2.30;2.17;;;;;;;2.74;67.29;101623.97;4953744;28;108371;-56
2024/01/13 10:16:02;;;;;;;2.63;2.10;;;;;;;2.76;66.93;101610.63;4955775;28;96708;-56
2024/01/13 10:18:31;;;;;;;3.03;2.60;;;;;;;2.75;67.31;101600.91;4953018;28;97652;-55
2024/01/13 10:20:56;;;;;;;2.73;2.50;;;;;;;2.73;67.35;101595.09;4953755;28;98568;-56
2024/01/13 10:23:22;;;;;;;2.77;2.47;;;;;;;2.72;66.82;101585.41;4953696;28;97579;-56
2024/01/13 10:25:48;;;;;;;2.50;2.30;;;;;;;2.72;67.06;101577.19;4954023;28;96931;-55
2024/01/13 10:28:15;;;;;;;3.33;2.63;;;;;;;2.70;67.07;101574.91;4955695;28;97478;-56
2024/01/13 10:30:40;;;;;;;2.63;2.43;;;;;;;2.71;67.19;101575.66;4954797;28;97623;-55
2024/01/13 10:33:08;;;;;;;2.83;2.53;;;;;;;2.72;67.22;101579.94;4952651;28;97562;-55
2024/01/13 10:35:33;;;;;;;2.50;2.30;;;;;;;2.76;67.24;101572.38;4950107;28;96722;-55
2024/01/13 10:37:59;;;;;;;3.47;2.93;;;;;;;2.79;67.06;101566.03;4953524;28;97381;-55
2024/01/13 10:40:25;;;;;;;5.93;3.03;;;;;;;2.82;67.24;101562.41;4957823;28;97483;-55
2024/01/13 10:42:56;;;;;;;4.27;2.90;;;;;;;2.84;67.11;101560.00;4954262;28;97261;-56
2024/01/13 10:45:23;;;;;;;3.20;3.00;;;;;;;2.85;67.21;101561.53;4953689;28;97089;-55
2024/01/13 10:47:52;;;;;;;3.00;2.53;;;;;;;2.85;67.42;101540.47;4952266;28;97070;-55
2024/01/13 10:50:18;;;;;;;3.27;2.77;;;;;;;2.85;67.01;101548.66;4951772;28;97610;-55
2024/01/13 10:53:05;;;;;;;2.67;2.40;;;;;;;2.85;67.26;101526.78;4952600;28;96765;-55
2024/01/13 10:55:31;;;;;;;2.57;2.37;;;;;;;2.88;67.20;101527.84;4953024;28;97007;-56
2024/01/13 10:57:59;;;;;;;2.90;2.70;;;;;;;2.89;66.94;101521.19;4953851;28;97027;-56
2024/01/13 11:00:25;;;;;;;3.00;2.70;;;;;;;2.92;67.03;101525.78;4956617;28;97087;-56
2024/01/13 11:02:52;;;;;;;3.10;2.83;;;;;;;2.93;66.84;101505.44;4954575;28;98725;-56
2024/01/13 11:05:19;;;;;;;3.90;3.03;;;;;;;2.93;67.01;101508.94;4953304;28;97229;-55
2024/01/13 11:07:44;;;;;;;2.90;2.60;;;;;;;2.97;67.09;101501.38;4953582;28;96658;-56
2024/01/13 11:10:17;;;;;;;2.87;2.67;;;;;;;3.02;66.79;101497.31;4953768;28;97491;-56
2024/01/13 11:12:58;;;;;;;3.20;2.80;;;;;;;3.05;67.43;101496.44;4952954;28;97127;-57
2024/01/13 11:15:28;;;;;;;2.80;2.60;;;;;;;3.00;67.02;101488.78;4952158;28;97170;-58
2024/01/13 11:17:53;;;;;;;3.20;2.90;;;;;;;2.99;67.13;101479.81;4951681;28;97176;-57
2024/01/13 11:20:19;;;;;;;3.90;3.30;;;;;;;2.99;67.29;101479.81;4953454;28;106590;-57
2024/01/13 11:22:56;;;;;;;2.80;2.60;;;;;;;2.99;67.12;101465.38;4950995;28;97132;-57
2024/01/13 11:25:25;;;;;;;4.43;3.20;;;;;;;2.95;67.24;101456.56;4951937;28;97331;-57